Weather at Mangalore Airport

Public forecast

Using degrees Celsius for public forecast. Weather courtesy of forecast.io.

Closest aviation weather report (METAR) to Mangalore Airport

Closest report is Melbourne International Airport, 49.9 nm (92.4 km) SSW. Retrieved 2021/11/28 17:30 UTC (18 minutes ago):

YMML 281730Z 33005KT CAVOK 09/09 Q1018

Closest aviation forecast (TAF) to Mangalore Airport

Closest forecast is Melbourne International Airport, 49.9 nm (92.4 km) SSW. Retrieved 2021/11/28 15:48 UTC (2 hours ago):

TAF YMML 281403Z 2815/2918 30007KT 9999 FEW008 FM281900 36007KT CAVOK FM290000 VRB03KT CAVOK FM290600 17008KT CAVOK FM291000 VRB03KT CAVOK